Current Weather Conditions: station NFBF1

sailwx.info

Wind from 130 at 13 knots gusting 15

Air temperature 30.6° C

Last reported at 2015-Jul-05 20:54 UTC.
Time now 2015-Jul-06 00:56 UTC

Location: N 25°05' W 081°05'.
View on Google Maps.

See reports from other nearby stations

  
Tides and Currents Weather Stations Pressure Air Temp Water Temp Dewpoint Dewpoint Depression Visibility Wind Speed Wind Dir Waves Ship Positions
date/time (UTC)wind fromknots sea level pressurealtimeterstation pressurevisibilityair tempwater tempwave heightnotes
2015-Jul-05 20:54 130 13 gusting 15 30.6
2015-Jul-05 20:48 130 13 gusting 15 30.6
2015-Jul-05 17:54 130 10 gusting 12 30.5
2015-Jul-05 17:48 120 10 gusting 12 30.4
2015-Jul-05 17:42 120 8 gusting 10 30.4
2015-Jul-05 17:36 140 9 gusting 12 30.4
2015-Jul-05 17:30 130 8 gusting 10 30.4
2015-Jul-05 17:24 120 8 gusting 10 30.4
2015-Jul-05 17:18 110 8 gusting 10 30.3
2015-Jul-05 17:12 130 9 gusting 11 30.2
2015-Jul-05 17:06 120 9 gusting 11 30.2
2015-Jul-05 17:00 120 9 gusting 11 30.3
2015-Jul-05 16:54 120 8 gusting 10 30.2
2015-Jul-05 16:48 130 8 gusting 11 30.2
2015-Jul-05 15:54 120 8 gusting 10 30.1
2015-Jul-05 15:48 130 9 gusting 10 30.1
2015-Jul-04 20:54 130 13 gusting 16 30.5
2015-Jul-04 20:48 130 13 gusting 16 30.5
2015-Jul-04 15:54 130 11 gusting 13 30.1
2015-Jul-04 15:48 130 11 gusting 14 30.0